sensor_id;sensor_type;location;lat;lon;timestamp;P1;durP1;ratioP1;P2;durP2;ratioP2
27543;SDS011;17996;51.056;3.656;2023-05-10T00:02:08;36.97;;;16.40;;
27543;SDS011;17996;51.056;3.656;2023-05-10T00:04:34;31.30;;;16.45;;
27543;SDS011;17996;51.056;3.656;2023-05-10T00:07:00;30.30;;;16.38;;
27543;SDS011;17996;51.056;3.656;2023-05-10T00:09:26;31.17;;;16.58;;
27543;SDS011;17996;51.056;3.656;2023-05-10T00:11:52;26.95;;;16.08;;
27543;SDS011;17996;51.056;3.656;2023-05-10T00:14:17;33.95;;;16.48;;
27543;SDS011;17996;51.056;3.656;2023-05-10T00:16:44;29.88;;;16.20;;
27543;SDS011;17996;51.056;3.656;2023-05-10T00:19:10;33.20;;;16.17;;
27543;SDS011;17996;51.056;3.656;2023-05-10T00:21:35;35.95;;;16.83;;
27543;SDS011;17996;51.056;3.656;2023-05-10T00:24:01;33.53;;;17.05;;
27543;SDS011;17996;51.056;3.656;2023-05-10T00:26:27;29.50;;;16.63;;
27543;SDS011;17996;51.056;3.656;2023-05-10T00:28:52;33.90;;;17.70;;
27543;SDS011;17996;51.056;3.656;2023-05-10T00:31:18;32.90;;;17.60;;
27543;SDS011;17996;51.056;3.656;2023-05-10T00:33:44;38.65;;;18.63;;
27543;SDS011;17996;51.056;3.656;2023-05-10T00:36:10;36.05;;;19.85;;
27543;SDS011;17996;51.056;3.656;2023-05-10T00:38:35;33.88;;;21.58;;
27543;SDS011;17996;51.056;3.656;2023-05-10T00:41:01;39.22;;;21.02;;
27543;SDS011;17996;51.056;3.656;2023-05-10T00:43:27;39.88;;;22.77;;
27543;SDS011;17996;51.056;3.656;2023-05-10T00:45:53;43.00;;;24.48;;
27543;SDS011;17996;51.056;3.656;2023-05-10T00:48:19;46.03;;;25.20;;
27543;SDS011;17996;51.056;3.656;2023-05-10T00:50:45;46.05;;;25.35;;
27543;SDS011;17996;51.056;3.656;2023-05-10T00:53:10;38.53;;;23.27;;
27543;SDS011;17996;51.056;3.656;2023-05-10T00:55:37;43.95;;;24.63;;
27543;SDS011;17996;51.056;3.656;2023-05-10T00:58:03;39.63;;;24.55;;
27543;SDS011;17996;51.056;3.656;2023-05-10T01:00:29;46.88;;;26.88;;
27543;SDS011;17996;51.056;3.656;2023-05-10T01:02:57;39.45;;;26.75;;
27543;SDS011;17996;51.056;3.656;2023-05-10T01:05:23;42.15;;;27.08;;
27543;SDS011;17996;51.056;3.656;2023-05-10T01:07:49;47.58;;;27.08;;
27543;SDS011;17996;51.056;3.656;2023-05-10T01:10:15;42.60;;;27.50;;
27543;SDS011;17996;51.056;3.656;2023-05-10T01:12:42;41.10;;;26.40;;
27543;SDS011;17996;51.056;3.656;2023-05-10T01:15:10;37.55;;;25.65;;
27543;SDS011;17996;51.056;3.656;2023-05-10T01:17:37;37.08;;;26.33;;
27543;SDS011;17996;51.056;3.656;2023-05-10T01:20:05;41.33;;;26.30;;
27543;SDS011;17996;51.056;3.656;2023-05-10T01:31:22;36.75;;;25.25;;
27543;SDS011;17996;51.056;3.656;2023-05-10T01:34:16;44.22;;;27.17;;
27543;SDS011;17996;51.056;3.656;2023-05-10T01:37:29;39.42;;;26.17;;
27543;SDS011;17996;51.056;3.656;2023-05-10T01:39:46;40.15;;;27.15;;
27543;SDS011;17996;51.056;3.656;2023-05-10T01:44:46;43.92;;;31.10;;
27543;SDS011;17996;51.056;3.656;2023-05-10T01:47:33;41.95;;;27.83;;
27543;SDS011;17996;51.056;3.656;2023-05-10T01:50:04;38.88;;;26.30;;
27543;SDS011;17996;51.056;3.656;2023-05-10T01:52:34;37.38;;;24.80;;
27543;SDS011;17996;51.056;3.656;2023-05-10T01:55:11;41.75;;;25.30;;
27543;SDS011;17996;51.056;3.656;2023-05-10T01:57:42;43.47;;;25.48;;
27543;SDS011;17996;51.056;3.656;2023-05-10T02:00:10;46.20;;;26.38;;
27543;SDS011;17996;51.056;3.656;2023-05-10T02:02:37;49.67;;;25.83;;
27543;SDS011;17996;51.056;3.656;2023-05-10T02:05:07;38.55;;;24.75;;
27543;SDS011;17996;51.056;3.656;2023-05-10T02:07:35;39.92;;;25.63;;
27543;SDS011;17996;51.056;3.656;2023-05-10T02:10:05;43.35;;;26.52;;
27543;SDS011;17996;51.056;3.656;2023-05-10T02:12:35;42.58;;;25.70;;
27543;SDS011;17996;51.056;3.656;2023-05-10T02:15:04;41.05;;;25.95;;
27543;SDS011;17996;51.056;3.656;2023-05-10T02:17:32;47.85;;;26.73;;
27543;SDS011;17996;51.056;3.656;2023-05-10T02:19:59;39.83;;;26.38;;
27543;SDS011;17996;51.056;3.656;2023-05-10T02:22:27;40.50;;;25.38;;
27543;SDS011;17996;51.056;3.656;2023-05-10T02:24:57;42.35;;;25.55;;
27543;SDS011;17996;51.056;3.656;2023-05-10T02:27:24;42.97;;;25.70;;
27543;SDS011;17996;51.056;3.656;2023-05-10T02:29:52;36.45;;;23.95;;
27543;SDS011;17996;51.056;3.656;2023-05-10T02:32:18;43.58;;;25.67;;
27543;SDS011;17996;51.056;3.656;2023-05-10T02:34:45;40.03;;;25.65;;
27543;SDS011;17996;51.056;3.656;2023-05-10T02:37:17;38.33;;;25.15;;
27543;SDS011;17996;51.056;3.656;2023-05-10T02:39:46;42.60;;;25.47;;
27543;SDS011;17996;51.056;3.656;2023-05-10T02:42:14;36.28;;;22.98;;
27543;SDS011;17996;51.056;3.656;2023-05-10T02:44:42;34.78;;;23.40;;
27543;SDS011;17996;51.056;3.656;2023-05-10T02:47:10;37.10;;;22.27;;
27543;SDS011;17996;51.056;3.656;2023-05-10T02:49:36;34.97;;;22.25;;
27543;SDS011;17996;51.056;3.656;2023-05-10T02:52:03;37.55;;;22.30;;
27543;SDS011;17996;51.056;3.656;2023-05-10T02:54:33;41.70;;;21.42;;
27543;SDS011;17996;51.056;3.656;2023-05-10T02:57:11;33.00;;;22.30;;
27543;SDS011;17996;51.056;3.656;2023-05-10T02:59:40;34.03;;;21.80;;
27543;SDS011;17996;51.056;3.656;2023-05-10T03:02:08;35.30;;;21.75;;
27543;SDS011;17996;51.056;3.656;2023-05-10T03:04:35;35.65;;;21.67;;
27543;SDS011;17996;51.056;3.656;2023-05-10T03:07:01;27.83;;;20.85;;
27543;SDS011;17996;51.056;3.656;2023-05-10T03:09:27;32.92;;;20.83;;
27543;SDS011;17996;51.056;3.656;2023-05-10T03:12:00;38.55;;;22.83;;
27543;SDS011;17996;51.056;3.656;2023-05-10T03:14:38;27.30;;;19.55;;
27543;SDS011;17996;51.056;3.656;2023-05-10T03:17:35;34.80;;;21.48;;
27543;SDS011;17996;51.056;3.656;2023-05-10T03:20:30;33.50;;;20.73;;
27543;SDS011;17996;51.056;3.656;2023-05-10T03:23:12;35.45;;;21.23;;
27543;SDS011;17996;51.056;3.656;2023-05-10T03:25:44;31.52;;;20.45;;
27543;SDS011;17996;51.056;3.656;2023-05-10T03:28:14;34.60;;;22.00;;
27543;SDS011;17996;51.056;3.656;2023-05-10T03:30:42;37.95;;;23.48;;
27543;SDS011;17996;51.056;3.656;2023-05-10T03:33:08;34.33;;;23.00;;
27543;SDS011;17996;51.056;3.656;2023-05-10T03:35:34;38.03;;;22.55;;
27543;SDS011;17996;51.056;3.656;2023-05-10T03:38:00;34.33;;;21.90;;
27543;SDS011;17996;51.056;3.656;2023-05-10T03:40:26;39.30;;;22.02;;
27543;SDS011;17996;51.056;3.656;2023-05-10T03:42:54;44.42;;;23.45;;
27543;SDS011;17996;51.056;3.656;2023-05-10T03:45:20;39.92;;;24.35;;
27543;SDS011;17996;51.056;3.656;2023-05-10T03:47:46;41.35;;;24.63;;
27543;SDS011;17996;51.056;3.656;2023-05-10T03:50:11;41.20;;;25.52;;
27543;SDS011;17996;51.056;3.656;2023-05-10T03:52:37;42.80;;;25.58;;
27543;SDS011;17996;51.056;3.656;2023-05-10T03:55:04;45.10;;;24.77;;
27543;SDS011;17996;51.056;3.656;2023-05-10T03:57:31;39.03;;;24.88;;
27543;SDS011;17996;51.056;3.656;2023-05-10T03:59:57;46.05;;;27.30;;
27543;SDS011;17996;51.056;3.656;2023-05-10T04:02:23;46.35;;;30.75;;
27543;SDS011;17996;51.056;3.656;2023-05-10T04:04:48;44.63;;;27.95;;
27543;SDS011;17996;51.056;3.656;2023-05-10T04:07:14;55.70;;;33.15;;
27543;SDS011;17996;51.056;3.656;2023-05-10T04:09:40;47.13;;;29.85;;
27543;SDS011;17996;51.056;3.656;2023-05-10T04:12:06;50.10;;;32.95;;
27543;SDS011;17996;51.056;3.656;2023-05-10T04:14:31;56.75;;;33.35;;
27543;SDS011;17996;51.056;3.656;2023-05-10T04:16:57;57.33;;;34.78;;
27543;SDS011;17996;51.056;3.656;2023-05-10T04:19:23;54.60;;;34.30;;
27543;SDS011;17996;51.056;3.656;2023-05-10T04:21:49;52.85;;;34.63;;
27543;SDS011;17996;51.056;3.656;2023-05-10T04:24:14;60.47;;;34.92;;
27543;SDS011;17996;51.056;3.656;2023-05-10T04:26:40;56.13;;;34.25;;
27543;SDS011;17996;51.056;3.656;2023-05-10T04:29:06;60.15;;;36.45;;
27543;SDS011;17996;51.056;3.656;2023-05-10T04:31:31;58.78;;;36.20;;
27543;SDS011;17996;51.056;3.656;2023-05-10T04:33:57;52.03;;;32.67;;
27543;SDS011;17996;51.056;3.656;2023-05-10T04:36:23;57.75;;;34.47;;
27543;SDS011;17996;51.056;3.656;2023-05-10T04:38:49;65.60;;;36.83;;
27543;SDS011;17996;51.056;3.656;2023-05-10T04:41:14;59.70;;;35.17;;
27543;SDS011;17996;51.056;3.656;2023-05-10T04:43:40;52.53;;;34.47;;
27543;SDS011;17996;51.056;3.656;2023-05-10T04:46:05;52.50;;;35.35;;
27543;SDS011;17996;51.056;3.656;2023-05-10T04:48:32;64.60;;;35.38;;
27543;SDS011;17996;51.056;3.656;2023-05-10T04:50:58;67.50;;;38.15;;
27543;SDS011;17996;51.056;3.656;2023-05-10T04:53:24;68.45;;;37.78;;
27543;SDS011;17996;51.056;3.656;2023-05-10T04:55:49;67.50;;;38.60;;
27543;SDS011;17996;51.056;3.656;2023-05-10T04:58:15;64.75;;;37.85;;
27543;SDS011;17996;51.056;3.656;2023-05-10T05:00:41;66.85;;;38.95;;
27543;SDS011;17996;51.056;3.656;2023-05-10T05:03:07;69.65;;;38.63;;
27543;SDS011;17996;51.056;3.656;2023-05-10T05:05:33;63.40;;;35.30;;
27543;SDS011;17996;51.056;3.656;2023-05-10T05:07:59;61.20;;;38.03;;
27543;SDS011;17996;51.056;3.656;2023-05-10T05:10:24;63.28;;;37.00;;
27543;SDS011;17996;51.056;3.656;2023-05-10T05:12:50;52.60;;;32.88;;
27543;SDS011;17996;51.056;3.656;2023-05-10T05:15:16;66.05;;;38.70;;
27543;SDS011;17996;51.056;3.656;2023-05-10T05:17:42;67.30;;;35.85;;
27543;SDS011;17996;51.056;3.656;2023-05-10T05:20:08;66.80;;;39.63;;
27543;SDS011;17996;51.056;3.656;2023-05-10T05:22:36;61.15;;;37.17;;
27543;SDS011;17996;51.056;3.656;2023-05-10T05:25:02;64.38;;;36.50;;
27543;SDS011;17996;51.056;3.656;2023-05-10T05:27:28;64.03;;;38.05;;
27543;SDS011;17996;51.056;3.656;2023-05-10T05:29:55;57.03;;;35.30;;
27543;SDS011;17996;51.056;3.656;2023-05-10T05:32:22;61.30;;;37.08;;
27543;SDS011;17996;51.056;3.656;2023-05-10T05:34:48;62.58;;;36.40;;
27543;SDS011;17996;51.056;3.656;2023-05-10T05:37:14;54.17;;;35.00;;
27543;SDS011;17996;51.056;3.656;2023-05-10T05:39:40;58.35;;;34.90;;
27543;SDS011;17996;51.056;3.656;2023-05-10T05:42:07;59.90;;;34.58;;
27543;SDS011;17996;51.056;3.656;2023-05-10T05:44:36;57.83;;;35.15;;
27543;SDS011;17996;51.056;3.656;2023-05-10T05:47:03;62.88;;;38.50;;
27543;SDS011;17996;51.056;3.656;2023-05-10T05:49:29;57.80;;;34.72;;
27543;SDS011;17996;51.056;3.656;2023-05-10T05:51:58;59.28;;;35.58;;
27543;SDS011;17996;51.056;3.656;2023-05-10T05:54:27;61.80;;;36.88;;
27543;SDS011;17996;51.056;3.656;2023-05-10T05:56:56;64.00;;;37.78;;
27543;SDS011;17996;51.056;3.656;2023-05-10T05:59:22;62.78;;;40.28;;
27543;SDS011;17996;51.056;3.656;2023-05-10T06:01:48;66.43;;;39.40;;
27543;SDS011;17996;51.056;3.656;2023-05-10T06:04:14;66.03;;;40.08;;
27543;SDS011;17996;51.056;3.656;2023-05-10T06:06:40;61.95;;;39.67;;
27543;SDS011;17996;51.056;3.656;2023-05-10T06:09:07;60.33;;;39.63;;
27543;SDS011;17996;51.056;3.656;2023-05-10T06:11:33;59.95;;;39.72;;
27543;SDS011;17996;51.056;3.656;2023-05-10T06:13:59;63.17;;;40.85;;
27543;SDS011;17996;51.056;3.656;2023-05-10T06:16:26;61.80;;;39.13;;
27543;SDS011;17996;51.056;3.656;2023-05-10T06:18:52;74.28;;;41.70;;
27543;SDS011;17996;51.056;3.656;2023-05-10T06:21:18;71.60;;;43.17;;
27543;SDS011;17996;51.056;3.656;2023-05-10T06:23:44;70.03;;;42.83;;
27543;SDS011;17996;51.056;3.656;2023-05-10T06:26:10;73.13;;;43.05;;
27543;SDS011;17996;51.056;3.656;2023-05-10T06:28:36;77.10;;;41.53;;
27543;SDS011;17996;51.056;3.656;2023-05-10T06:31:04;74.65;;;44.58;;
27543;SDS011;17996;51.056;3.656;2023-05-10T06:33:30;77.97;;;46.28;;
27543;SDS011;17996;51.056;3.656;2023-05-10T06:35:56;83.93;;;44.45;;
27543;SDS011;17996;51.056;3.656;2023-05-10T06:38:22;81.70;;;46.85;;
27543;SDS011;17996;51.056;3.656;2023-05-10T06:40:47;78.93;;;47.00;;
27543;SDS011;17996;51.056;3.656;2023-05-10T06:43:13;73.28;;;45.83;;
27543;SDS011;17996;51.056;3.656;2023-05-10T06:45:39;76.88;;;43.95;;
27543;SDS011;17996;51.056;3.656;2023-05-10T06:48:05;72.50;;;44.08;;
27543;SDS011;17996;51.056;3.656;2023-05-10T06:50:31;75.05;;;45.15;;
27543;SDS011;17996;51.056;3.656;2023-05-10T06:52:58;71.40;;;45.35;;
27543;SDS011;17996;51.056;3.656;2023-05-10T06:55:24;66.47;;;42.60;;
27543;SDS011;17996;51.056;3.656;2023-05-10T06:57:50;73.45;;;42.65;;
27543;SDS011;17996;51.056;3.656;2023-05-10T07:00:16;66.93;;;42.63;;
27543;SDS011;17996;51.056;3.656;2023-05-10T07:02:42;66.40;;;41.45;;
27543;SDS011;17996;51.056;3.656;2023-05-10T07:05:08;69.60;;;40.83;;
27543;SDS011;17996;51.056;3.656;2023-05-10T07:07:34;63.33;;;40.80;;
27543;SDS011;17996;51.056;3.656;2023-05-10T07:10:00;63.90;;;41.25;;
27543;SDS011;17996;51.056;3.656;2023-05-10T07:12:25;72.50;;;41.08;;
27543;SDS011;17996;51.056;3.656;2023-05-10T07:14:51;61.13;;;39.88;;
27543;SDS011;17996;51.056;3.656;2023-05-10T07:17:17;64.57;;;39.28;;
27543;SDS011;17996;51.056;3.656;2023-05-10T07:19:43;69.00;;;40.60;;
27543;SDS011;17996;51.056;3.656;2023-05-10T07:22:09;74.50;;;39.47;;
27543;SDS011;17996;51.056;3.656;2023-05-10T07:24:34;61.85;;;36.25;;
27543;SDS011;17996;51.056;3.656;2023-05-10T07:27:00;57.20;;;36.65;;
27543;SDS011;17996;51.056;3.656;2023-05-10T07:29:26;58.00;;;35.22;;
27543;SDS011;17996;51.056;3.656;2023-05-10T07:31:52;55.17;;;35.42;;
27543;SDS011;17996;51.056;3.656;2023-05-10T07:34:18;51.72;;;34.92;;
27543;SDS011;17996;51.056;3.656;2023-05-10T07:36:44;58.83;;;35.05;;
27543;SDS011;17996;51.056;3.656;2023-05-10T07:39:09;54.53;;;35.10;;
27543;SDS011;17996;51.056;3.656;2023-05-10T07:41:35;60.97;;;35.95;;
27543;SDS011;17996;51.056;3.656;2023-05-10T07:44:02;56.15;;;34.40;;
27543;SDS011;17996;51.056;3.656;2023-05-10T07:46:28;50.70;;;33.15;;
27543;SDS011;17996;51.056;3.656;2023-05-10T07:48:54;52.55;;;34.58;;
27543;SDS011;17996;51.056;3.656;2023-05-10T07:51:20;51.33;;;32.95;;
27543;SDS011;17996;51.056;3.656;2023-05-10T07:53:46;53.50;;;31.77;;
27543;SDS011;17996;51.056;3.656;2023-05-10T07:56:22;57.25;;;31.70;;
27543;SDS011;17996;51.056;3.656;2023-05-10T07:58:50;50.05;;;31.17;;
27543;SDS011;17996;51.056;3.656;2023-05-10T08:01:17;38.72;;;23.75;;
27543;SDS011;17996;51.056;3.656;2023-05-10T08:03:43;34.30;;;21.35;;
27543;SDS011;17996;51.056;3.656;2023-05-10T08:06:09;32.55;;;22.27;;
27543;SDS011;17996;51.056;3.656;2023-05-10T08:08:35;37.50;;;24.25;;
27543;SDS011;17996;51.056;3.656;2023-05-10T08:11:01;35.88;;;25.02;;
27543;SDS011;17996;51.056;3.656;2023-05-10T08:13:27;38.20;;;23.73;;
27543;SDS011;17996;51.056;3.656;2023-05-10T08:15:53;40.33;;;28.35;;
27543;SDS011;17996;51.056;3.656;2023-05-10T08:18:18;40.30;;;27.55;;
27543;SDS011;17996;51.056;3.656;2023-05-10T08:20:44;43.45;;;29.80;;
27543;SDS011;17996;51.056;3.656;2023-05-10T08:23:12;48.00;;;28.50;;
27543;SDS011;17996;51.056;3.656;2023-05-10T08:25:38;47.80;;;27.40;;
27543;SDS011;17996;51.056;3.656;2023-05-10T08:28:03;42.22;;;26.55;;
27543;SDS011;17996;51.056;3.656;2023-05-10T08:30:29;42.05;;;27.42;;
27543;SDS011;17996;51.056;3.656;2023-05-10T08:32:55;38.40;;;26.52;;
27543;SDS011;17996;51.056;3.656;2023-05-10T08:35:21;44.60;;;26.58;;
27543;SDS011;17996;51.056;3.656;2023-05-10T08:37:46;39.25;;;25.88;;
27543;SDS011;17996;51.056;3.656;2023-05-10T08:40:12;42.03;;;26.05;;
27543;SDS011;17996;51.056;3.656;2023-05-10T08:42:40;39.33;;;25.80;;
27543;SDS011;17996;51.056;3.656;2023-05-10T08:45:12;48.45;;;26.85;;
27543;SDS011;17996;51.056;3.656;2023-05-10T08:47:40;45.80;;;24.48;;
27543;SDS011;17996;51.056;3.656;2023-05-10T08:50:07;45.45;;;24.33;;
27543;SDS011;17996;51.056;3.656;2023-05-10T08:52:33;40.88;;;24.55;;
27543;SDS011;17996;51.056;3.656;2023-05-10T08:55:04;39.55;;;24.48;;
27543;SDS011;17996;51.056;3.656;2023-05-10T08:57:30;37.75;;;24.27;;
27543;SDS011;17996;51.056;3.656;2023-05-10T08:59:55;35.22;;;24.25;;
27543;SDS011;17996;51.056;3.656;2023-05-10T09:02:21;36.85;;;23.30;;
27543;SDS011;17996;51.056;3.656;2023-05-10T09:04:48;32.88;;;22.77;;
27543;SDS011;17996;51.056;3.656;2023-05-10T09:07:14;36.20;;;22.73;;
27543;SDS011;17996;51.056;3.656;2023-05-10T09:09:40;41.42;;;23.63;;
27543;SDS011;17996;51.056;3.656;2023-05-10T09:12:07;32.22;;;21.83;;
27543;SDS011;17996;51.056;3.656;2023-05-10T09:17:01;28.13;;;19.10;;
27543;SDS011;17996;51.056;3.656;2023-05-10T09:19:27;30.23;;;19.10;;
27543;SDS011;17996;51.056;3.656;2023-05-10T09:21:53;31.38;;;19.40;;
27543;SDS011;17996;51.056;3.656;2023-05-10T09:24:20;27.58;;;20.40;;
27543;SDS011;17996;51.056;3.656;2023-05-10T09:26:50;31.75;;;20.73;;
27543;SDS011;17996;51.056;3.656;2023-05-10T09:29:16;33.08;;;21.83;;
27543;SDS011;17996;51.056;3.656;2023-05-10T09:31:49;38.60;;;23.00;;
27543;SDS011;17996;51.056;3.656;2023-05-10T09:34:20;61.95;;;25.23;;
27543;SDS011;17996;51.056;3.656;2023-05-10T09:36:54;43.40;;;25.20;;
27543;SDS011;17996;51.056;3.656;2023-05-10T09:39:34;42.95;;;24.23;;
27543;SDS011;17996;51.056;3.656;2023-05-10T09:42:06;39.53;;;25.33;;
27543;SDS011;17996;51.056;3.656;2023-05-10T09:44:35;37.30;;;22.50;;
27543;SDS011;17996;51.056;3.656;2023-05-10T09:47:03;33.78;;;23.23;;
27543;SDS011;17996;51.056;3.656;2023-05-10T09:49:29;36.22;;;23.52;;
27543;SDS011;17996;51.056;3.656;2023-05-10T09:54:28;38.63;;;20.45;;
27543;SDS011;17996;51.056;3.656;2023-05-10T09:56:54;32.88;;;20.55;;
27543;SDS011;17996;51.056;3.656;2023-05-10T09:59:20;31.33;;;21.35;;
27543;SDS011;17996;51.056;3.656;2023-05-10T10:01:49;29.90;;;20.25;;
27543;SDS011;17996;51.056;3.656;2023-05-10T10:04:16;35.97;;;21.35;;
27543;SDS011;17996;51.056;3.656;2023-05-10T10:06:42;37.45;;;20.52;;
27543;SDS011;17996;51.056;3.656;2023-05-10T10:09:08;45.25;;;21.13;;
27543;SDS011;17996;51.056;3.656;2023-05-10T10:11:35;36.72;;;19.65;;
27543;SDS011;17996;51.056;3.656;2023-05-10T10:14:01;39.47;;;19.45;;
27543;SDS011;17996;51.056;3.656;2023-05-10T10:16:30;31.50;;;18.10;;
27543;SDS011;17996;51.056;3.656;2023-05-10T10:21:23;31.27;;;18.08;;
27543;SDS011;17996;51.056;3.656;2023-05-10T10:23:49;30.10;;;20.23;;
27543;SDS011;17996;51.056;3.656;2023-05-10T10:26:15;31.58;;;18.55;;
27543;SDS011;17996;51.056;3.656;2023-05-10T10:31:47;28.50;;;17.73;;
27543;SDS011;17996;51.056;3.656;2023-05-10T10:34:29;29.55;;;18.42;;
27543;SDS011;17996;51.056;3.656;2023-05-10T10:36:56;29.45;;;17.70;;
27543;SDS011;17996;51.056;3.656;2023-05-10T10:39:23;28.17;;;17.77;;
27543;SDS011;17996;51.056;3.656;2023-05-10T10:41:54;34.33;;;20.10;;
27543;SDS011;17996;51.056;3.656;2023-05-10T10:49:31;33.58;;;19.85;;
27543;SDS011;17996;51.056;3.656;2023-05-10T10:55:06;31.60;;;20.50;;
27543;SDS011;17996;51.056;3.656;2023-05-10T10:57:42;32.67;;;21.65;;
27543;SDS011;17996;51.056;3.656;2023-05-10T11:02:50;40.72;;;24.65;;
27543;SDS011;17996;51.056;3.656;2023-05-10T11:08:00;43.22;;;26.27;;
27543;SDS011;17996;51.056;3.656;2023-05-10T11:10:31;36.22;;;27.45;;
27543;SDS011;17996;51.056;3.656;2023-05-10T11:13:01;44.05;;;29.00;;
27543;SDS011;17996;51.056;3.656;2023-05-10T11:15:35;39.55;;;28.83;;
27543;SDS011;17996;51.056;3.656;2023-05-10T11:18:24;38.83;;;29.10;;
27543;SDS011;17996;51.056;3.656;2023-05-10T11:20:56;41.45;;;29.88;;
27543;SDS011;17996;51.056;3.656;2023-05-10T11:23:32;35.87;;;26.90;;
27543;SDS011;17996;51.056;3.656;2023-05-10T11:26:06;43.97;;;33.00;;
27543;SDS011;17996;51.056;3.656;2023-05-10T11:31:29;38.55;;;28.83;;
27543;SDS011;17996;51.056;3.656;2023-05-10T11:33:56;39.65;;;29.70;;
27543;SDS011;17996;51.056;3.656;2023-05-10T11:36:26;38.75;;;30.90;;
27543;SDS011;17996;51.056;3.656;2023-05-10T11:38:54;40.00;;;29.15;;
27543;SDS011;17996;51.056;3.656;2023-05-10T11:41:21;46.75;;;30.88;;
27543;SDS011;17996;51.056;3.656;2023-05-10T11:43:52;35.05;;;28.40;;
27543;SDS011;17996;51.056;3.656;2023-05-10T11:46:19;39.35;;;29.10;;
27543;SDS011;17996;51.056;3.656;2023-05-10T11:48:49;37.42;;;28.70;;
27543;SDS011;17996;51.056;3.656;2023-05-10T11:51:20;43.45;;;27.30;;
27543;SDS011;17996;51.056;3.656;2023-05-10T11:53:47;40.22;;;27.00;;
27543;SDS011;17996;51.056;3.656;2023-05-10T11:56:13;35.50;;;26.42;;
27543;SDS011;17996;51.056;3.656;2023-05-10T11:58:39;37.47;;;26.35;;
27543;SDS011;17996;51.056;3.656;2023-05-10T12:01:06;34.83;;;24.83;;
27543;SDS011;17996;51.056;3.656;2023-05-10T12:03:33;33.17;;;24.20;;
27543;SDS011;17996;51.056;3.656;2023-05-10T12:06:00;36.92;;;24.92;;
27543;SDS011;17996;51.056;3.656;2023-05-10T12:08:26;38.70;;;25.75;;
27543;SDS011;17996;51.056;3.656;2023-05-10T12:10:54;32.88;;;24.73;;
27543;SDS011;17996;51.056;3.656;2023-05-10T12:13:36;34.17;;;24.05;;
27543;SDS011;17996;51.056;3.656;2023-05-10T12:16:22;28.75;;;22.50;;
27543;SDS011;17996;51.056;3.656;2023-05-10T12:18:50;31.60;;;23.33;;
27543;SDS011;17996;51.056;3.656;2023-05-10T12:21:17;33.30;;;24.05;;
27543;SDS011;17996;51.056;3.656;2023-05-10T12:23:45;33.30;;;24.10;;
27543;SDS011;17996;51.056;3.656;2023-05-10T12:26:23;44.65;;;24.10;;
27543;SDS011;17996;51.056;3.656;2023-05-10T12:28:52;42.70;;;25.08;;
27543;SDS011;17996;51.056;3.656;2023-05-10T12:31:18;36.65;;;25.35;;
27543;SDS011;17996;51.056;3.656;2023-05-10T12:33:44;48.33;;;26.50;;
27543;SDS011;17996;51.056;3.656;2023-05-10T12:36:12;45.20;;;27.55;;
27543;SDS011;17996;51.056;3.656;2023-05-10T12:38:40;51.50;;;28.48;;
27543;SDS011;17996;51.056;3.656;2023-05-10T12:41:13;39.92;;;26.48;;
27543;SDS011;17996;51.056;3.656;2023-05-10T12:43:40;64.00;;;30.08;;
27543;SDS011;17996;51.056;3.656;2023-05-10T12:46:10;53.95;;;27.67;;
27543;SDS011;17996;51.056;3.656;2023-05-10T12:48:37;46.47;;;28.30;;
27543;SDS011;17996;51.056;3.656;2023-05-10T12:51:04;41.95;;;27.92;;
27543;SDS011;17996;51.056;3.656;2023-05-10T12:53:34;53.53;;;29.20;;
27543;SDS011;17996;51.056;3.656;2023-05-10T12:56:00;49.42;;;28.73;;
27543;SDS011;17996;51.056;3.656;2023-05-10T12:58:26;48.33;;;30.23;;
27543;SDS011;17996;51.056;3.656;2023-05-10T13:00:51;57.63;;;29.95;;
27543;SDS011;17996;51.056;3.656;2023-05-10T13:03:17;62.72;;;30.50;;
27543;SDS011;17996;51.056;3.656;2023-05-10T13:05:43;50.00;;;30.25;;
27543;SDS011;17996;51.056;3.656;2023-05-10T13:08:09;49.38;;;31.05;;
27543;SDS011;17996;51.056;3.656;2023-05-10T13:10:35;49.70;;;30.80;;
27543;SDS011;17996;51.056;3.656;2023-05-10T13:13:00;60.88;;;31.88;;
27543;SDS011;17996;51.056;3.656;2023-05-10T13:15:26;49.03;;;31.23;;
27543;SDS011;17996;51.056;3.656;2023-05-10T13:17:52;48.95;;;30.42;;
27543;SDS011;17996;51.056;3.656;2023-05-10T13:20:19;45.88;;;30.52;;
27543;SDS011;17996;51.056;3.656;2023-05-10T13:22:44;53.60;;;31.98;;
27543;SDS011;17996;51.056;3.656;2023-05-10T13:25:10;50.60;;;30.98;;
27543;SDS011;17996;51.056;3.656;2023-05-10T13:27:37;48.33;;;30.30;;
27543;SDS011;17996;51.056;3.656;2023-05-10T13:30:04;47.20;;;30.85;;
27543;SDS011;17996;51.056;3.656;2023-05-10T13:32:30;45.13;;;30.10;;
27543;SDS011;17996;51.056;3.656;2023-05-10T13:34:56;43.83;;;28.10;;
27543;SDS011;17996;51.056;3.656;2023-05-10T13:37:22;52.22;;;29.80;;
27543;SDS011;17996;51.056;3.656;2023-05-10T13:39:48;41.45;;;28.75;;
27543;SDS011;17996;51.056;3.656;2023-05-10T13:42:13;51.85;;;30.90;;
27543;SDS011;17996;51.056;3.656;2023-05-10T13:44:39;45.10;;;28.88;;
27543;SDS011;17996;51.056;3.656;2023-05-10T13:47:05;37.40;;;26.55;;
27543;SDS011;17996;51.056;3.656;2023-05-10T13:49:31;41.80;;;28.20;;
27543;SDS011;17996;51.056;3.656;2023-05-10T13:51:59;51.22;;;29.50;;
27543;SDS011;17996;51.056;3.656;2023-05-10T13:54:30;50.55;;;29.52;;
27543;SDS011;17996;51.056;3.656;2023-05-10T13:56:56;48.63;;;28.13;;
27543;SDS011;17996;51.056;3.656;2023-05-10T13:59:22;47.42;;;28.15;;
27543;SDS011;17996;51.056;3.656;2023-05-10T14:01:48;47.55;;;28.70;;
27543;SDS011;17996;51.056;3.656;2023-05-10T14:04:13;46.13;;;27.25;;
27543;SDS011;17996;51.056;3.656;2023-05-10T14:06:39;39.58;;;26.25;;
27543;SDS011;17996;51.056;3.656;2023-05-10T14:09:05;45.05;;;23.10;;
27543;SDS011;17996;51.056;3.656;2023-05-10T14:11:31;50.63;;;25.42;;
27543;SDS011;17996;51.056;3.656;2023-05-10T14:13:56;43.17;;;26.50;;
27543;SDS011;17996;51.056;3.656;2023-05-10T14:16:22;49.67;;;21.88;;
27543;SDS011;17996;51.056;3.656;2023-05-10T14:18:47;30.33;;;17.00;;
27543;SDS011;17996;51.056;3.656;2023-05-10T14:21:13;33.05;;;14.25;;
27543;SDS011;17996;51.056;3.656;2023-05-10T14:23:40;30.42;;;13.73;;
27543;SDS011;17996;51.056;3.656;2023-05-10T14:26:06;31.92;;;12.27;;
27543;SDS011;17996;51.056;3.656;2023-05-10T14:28:31;34.90;;;13.50;;
27543;SDS011;17996;51.056;3.656;2023-05-10T14:30:57;27.70;;;11.75;;
27543;SDS011;17996;51.056;3.656;2023-05-10T14:33:24;26.98;;;11.10;;
27543;SDS011;17996;51.056;3.656;2023-05-10T14:35:50;25.02;;;10.85;;
27543;SDS011;17996;51.056;3.656;2023-05-10T14:38:16;32.70;;;11.90;;
27543;SDS011;17996;51.056;3.656;2023-05-10T14:40:41;26.42;;;11.30;;
27543;SDS011;17996;51.056;3.656;2023-05-10T14:43:08;25.15;;;9.57;;
27543;SDS011;17996;51.056;3.656;2023-05-10T14:45:33;25.88;;;9.02;;
27543;SDS011;17996;51.056;3.656;2023-05-10T14:47:59;21.55;;;8.05;;
27543;SDS011;17996;51.056;3.656;2023-05-10T14:50:26;18.73;;;8.00;;
27543;SDS011;17996;51.056;3.656;2023-05-10T14:52:53;26.33;;;8.18;;
27543;SDS011;17996;51.056;3.656;2023-05-10T14:55:18;17.48;;;7.35;;
27543;SDS011;17996;51.056;3.656;2023-05-10T14:57:44;21.45;;;7.82;;
27543;SDS011;17996;51.056;3.656;2023-05-10T15:00:12;19.80;;;6.45;;
27543;SDS011;17996;51.056;3.656;2023-05-10T15:02:40;17.53;;;6.83;;